Southern, LA (70813)

2:20 PM CDT on July 23, 2016 (GMT -0500)
department of public safety | | Change Station

Elev 59 ft 30.45 °N, 91.11 °W | Updated 1 minute ago

Mostly Cloudy
Mostly Cloudy
93.2 °F
Feels Like 107 °F
N
6.8
Wind Variable Wind from NW

Today
High -- | Low -- °F
--% Chance of Precip.
Yesterday
High -- | Low -- °F
Precip. -- in
Pressure 29.99 in
Visibility 10.0 miles
Clouds Mostly Cloudy 3800 ft
Mostly Cloudy 5000 ft
Heat Index 107 °F
Dew Point 77 °F
Humidity 59%
Rainfall 0.00 in
Snow Depth Not available.
6:17 AM 8:04 PM
Waning Gibbous, 83% visible
METAR KBTR 231853Z AUTO 26007KT 10SM BKN038 BKN050 34/23 A2999 RMK AO2 SLP153 T03390233
Pressure 29.99 in
Visibility 10.0 miles
Clouds Mostly Cloudy 3800 ft
Mostly Cloudy 5000 ft
Heat Index 107 °F
Dew Point 77 °F
Humidity 59%
Rainfall 0.00 in
Snow Depth Not available.
6:17 AM 8:04 PM
Waning Gibbous, 83% visible
METAR KBTR 231853Z AUTO 26007KT 10SM BKN038 BKN050 34/23 A2999 RMK AO2 SLP153 T03390233

10-Day Weather Forecast

Almanac

Astronomy

Jul. 23, 2016 Rise Set
Actual Time
Civil Twilight
Nautical Twilight
Astronomical Twilight
Moon
Length of Visible Light
Length of Day
Tomorrow will be .
, % of the Moon is Illuminated

Today's Extremes

State Highs State Lows

Community

WunderPhotos

Upload Photos

1,926,896 photos uploaded!

WunderBlog® & News

Nearby

Air Quality

  Air Quality AQ Index Pollutant
Not available.

Snow Depth

Station Depth Elevation

Earthquake Activity

City Distance Mag. Time & Date
Minimum magnitude displayed is 2.5.

Coastal Water Temperatures

Place Temperature

Stations

Nearby Weather Stations

Station Location Temp. Windchill Dew Point Humidity Wind Precip. Elev Updated Type
                   

Watches & Warnings

There are currently no watches in effect.